WetterOnline ( https://www.wetteronline.de )

Wetter aktuell Trostberg

Aktuelles Wetter: Chieming (553m)

6-stündlich | Neueste Meldungen
Ortszeit Temperatur Wetter
Mo, 27.05. 2:00 12.3° C fast wolkenlos
So, 26.05. 20:00 19.5° C wolkenlos
So, 26.05. 14:00 17.8° C wolkenlos
So, 26.05. 8:00 12.5° C bedeckt
So, 26.05. 2:00 12.4° C bedeckt
Sa, 25.05. 20:00 14.0° C bedeckt
Sa, 25.05. 14:00 20.6° C wolkig
Sa, 25.05. 8:00 14.1° C wolkenlos
Ortszeit Temperatur Wetter
Mo, 27.05. 2:00 12.3° C fast wolkenlos
Mo, 27.05. 1:40 11.7° C fast wolkenlos
Mo, 27.05. 1:30 10.7° C leicht bewölkt
Mo, 27.05. 1:20 10.7° C leicht bewölkt
Mo, 27.05. 1:10 11.6° C leicht bewölkt
Mo, 27.05. 1:00 11.9° C fast wolkenlos
Mo, 27.05. 0:50 11.9° C fast wolkenlos
Mo, 27.05. 0:30 11.8° C wolkenlos
Mo, 27.05. 0:00 11.9° C wolkenlos
So, 26.05. 23:30 12.8° C wolkenlos
So, 26.05. 23:00 14.0° C wolkenlos
So, 26.05. 22:30 15.2° C wolkenlos
Ortszeit Relative Feuchte Sichtweite
Mo, 27.05. 2:00 82% 30 km
So, 26.05. 20:00 57% 29 km
So, 26.05. 14:00 59% 23 km
So, 26.05. 8:00 90% 15 km
So, 26.05. 2:00 93% 14 km
Sa, 25.05. 20:00 87% 14 km
Sa, 25.05. 14:00 45% 20 km
Sa, 25.05. 8:00 63% 21 km
Ortszeit Relative Feuchte Sichtweite
Mo, 27.05. 2:00 82% 30 km
Mo, 27.05. 1:40 85% -
Mo, 27.05. 1:30 89% 30 km
Mo, 27.05. 1:20 89% -
Mo, 27.05. 1:10 86% -
Mo, 27.05. 1:00 91% 24 km
Mo, 27.05. 0:50 91% -
Mo, 27.05. 0:30 87% 30 km
Mo, 27.05. 0:00 88% 25 km
So, 26.05. 23:30 83% 20 km
So, 26.05. 23:00 78% 25 km
So, 26.05. 22:30 72% 30 km
Ortszeit Niederschlagsmenge Niederschlagsart
Mo, 27.05. 2:00 0.0 l/m2 in 6 Std. -
So, 26.05. 20:00 0.0 l/m2 in 12 Std. -
So, 26.05. 14:00 0.0 l/m2 in 6 Std. -
So, 26.05. 8:00 0.3 l/m2 in 12 Std. Regen
So, 26.05. 2:00 0.3 l/m2 in 6 Std. Regen
Sa, 25.05. 20:00 2 l/m2 in 12 Std. Regen
Sa, 25.05. 14:00 0.0 l/m2 in 6 Std. -
Sa, 25.05. 8:00 0.0 l/m2 in 12 Std. -
Ortszeit Niederschlagsmenge Niederschlagsart
Mo, 27.05. 2:00 0.0 l/m2 in 1 Std. -
Mo, 27.05. 1:40 keine Meldung -
Mo, 27.05. 1:30 0.0 l/m2 in 1 Std. -
Mo, 27.05. 1:20 keine Meldung -
Mo, 27.05. 1:10 keine Meldung -
Mo, 27.05. 1:00 0.0 l/m2 in 1 Std. -
Mo, 27.05. 0:50 keine Meldung -
Mo, 27.05. 0:30 0.0 l/m2 in 1 Std. -
Mo, 27.05. 0:00 0.0 l/m2 in 1 Std. -
So, 26.05. 23:30 0.0 l/m2 in 1 Std. -
So, 26.05. 23:00 0.0 l/m2 in 1 Std. -
So, 26.05. 22:30 0.0 l/m2 in 1 Std. -
Ortszeit Stärke Spitze Richtung
km/h Bft. km/h Grad Sektor
Mo, 27.05. 2:00 7 2 14 170° S
So, 26.05. 20:00 4 1 14 240° SW
So, 26.05. 14:00 9 2 17 300° NW
So, 26.05. 8:00 11 2 18 190° S
So, 26.05. 2:00 7 2 18 210° SW
Sa, 25.05. 20:00 9 2 39 200° S
Sa, 25.05. 14:00 9 2 13 250° W
Sa, 25.05. 8:00 2 1 7 10° N
Ortszeit Stärke Spitze Richtung
km/h Bft. km/h Grad Sektor
Mo, 27.05. 2:00 7 2 14 170° S
Mo, 27.05. 1:40 7 2 - 160° S
Mo, 27.05. 1:30 7 2 14 140° SO
Mo, 27.05. 1:20 7 2 - 140° SO
Mo, 27.05. 1:10 7 2 - 160° S
Mo, 27.05. 1:00 6 1 7 260° W
Mo, 27.05. 0:50 6 1 - 260° W
Mo, 27.05. 0:30 7 2 7 90° O
Mo, 27.05. 0:00 6 1 6 100° O
So, 26.05. 23:30 4 1 7 120° SO
So, 26.05. 23:00 4 1 7 90° O
So, 26.05. 22:30 6 1 7 120° SO
Ortszeit Untergrenze Bedeckung Gattung
total tief tief mittel hoch
Mo, 27.05. 2:00 9000 m 1/8 0/8 - - -
So, 26.05. 20:00 - 0/8 0/8 - - -
So, 26.05. 14:00 - 0/8 0/8 - - -
So, 26.05. 8:00 1290 m 8/8 8/8 - - -
So, 26.05. 2:00 2100 m 8/8 8/8 - - -
Sa, 25.05. 20:00 1800 m 8/8 8/8 - - -
Sa, 25.05. 14:00 4200 m 7/8 7/8 - - -
Sa, 25.05. 8:00 - 0/8 0/8 - - -
Ortszeit Bedeckungsgrad in Achtel und Wolkenuntergrenze
Mo, 27.05. 2:00 1(9000m)
Mo, 27.05. 1:40 2(10500m)
Mo, 27.05. 1:30 2(3300m) 3(10500m)
Mo, 27.05. 1:20 2(3300m) 3(10500m)
Mo, 27.05. 1:10 3(3300m)
Mo, 27.05. 1:00 1(10500m) 2(10500m)
Mo, 27.05. 0:50 1(10500m)
Mo, 27.05. 0:30 keine Wolken
Mo, 27.05. 0:00 keine Wolken
So, 26.05. 23:30 keine Wolken
So, 26.05. 23:00 keine Wolken
So, 26.05. 22:30 keine Wolken
Ortszeit Luftdruck NN (hPa) Tendenz (hPa in 3 Std.)
Mo, 27.05. 2:00 1014 - 0,7
So, 26.05. 20:00 1013 - 0,8
So, 26.05. 14:00 1015 - 1,4
So, 26.05. 8:00 1017 + 0,4
So, 26.05. 2:00 1017 + 0,1
Sa, 25.05. 20:00 1016 + 2,0
Sa, 25.05. 14:00 1013 - 0,9
Sa, 25.05. 8:00 1014 + 0,5
Ortszeit Luftdruck NN (hPa) Tendenz (hPa in 3 Std.)
Mo, 27.05. 2:00 1014 - 0,7
Mo, 27.05. 1:40 1014 keine Meldung
Mo, 27.05. 1:30 1014 - 0,7
Mo, 27.05. 1:20 1014 keine Meldung
Mo, 27.05. 1:10 1014 keine Meldung
Mo, 27.05. 1:00 1014 - 0,3
Mo, 27.05. 0:50 1014 keine Meldung
Mo, 27.05. 0:30 1014 - 0,2
Mo, 27.05. 0:00 1014 + 0,2
So, 26.05. 23:30 1014 + 0,1
So, 26.05. 23:00 1014 0,0
So, 26.05. 22:30 1014 0,0
Ortszeit Schneehöhe (cm)
Mo, 27.05. 2:00 -
So, 26.05. 20:00 -
So, 26.05. 14:00 -
So, 26.05. 8:00 -
So, 26.05. 2:00 -
Sa, 25.05. 20:00 -
Sa, 25.05. 14:00 -
Sa, 25.05. 8:00 -
Ortszeit Schneehöhe (cm)
Mo, 27.05. 2:00 -
Mo, 27.05. 1:40 -
Mo, 27.05. 1:30 -
Mo, 27.05. 1:20 -
Mo, 27.05. 1:10 -
Mo, 27.05. 1:00 -
Mo, 27.05. 0:50 -
Mo, 27.05. 0:30 -
Mo, 27.05. 0:00 -
So, 26.05. 23:30 -
So, 26.05. 23:00 -
So, 26.05. 22:30 -
Link zu dieser Seite / Seite empfehlen

Das Wetter in ...